Currituck — AEFR — position and weather

sailwx.info

Track history (hours):
 
Tides and Currents Weather Stations Pressure Air Temp Water Temp Dewpoint Dewpoint Depression Visibility Wind Speed Wind Dir Waves Ship Positions

Currituck

Last reported at 2015-Aug-24 08:31 UTC. Time now 2015-Sep-01 14:13 UTC.
Position N 37°56' W 075°23'.
Warning: this ship's position is 8 days out of date.

Length 45 m; draft 3 m.

Type: Dredging. MMSI: 369970446.

Date/timePositionNaut miles runAvg speedWind from/ knotsBaromVisibWave heightAir tempDewpointWater temp
2015-Aug-24 08:31N 37°56' W 075°23'0 0.0
2015-Aug-23 13:33N 37°56' W 075°23'0 0.0
2015-Aug-23 12:33N 37°56' W 075°23'0 0.0
2015-Aug-23 11:33N 37°56' W 075°23'0 0.0
2015-Aug-23 09:33N 37°56' W 075°23'0 0.0
2015-Aug-22 09:20N 37°56' W 075°23'0 0.0
2015-Aug-22 04:33N 37°56' W 075°23'0 0.0
2015-Aug-22 03:33N 37°56' W 075°23'0 0.0
2015-Aug-20 09:31N 37°56' W 075°23'0 0.0
2015-Aug-20 08:19N 37°56' W 075°23'0 0.0
2015-Aug-20 07:28N 37°56' W 075°23'0 0.0
2015-Aug-20 06:28N 37°56' W 075°23'0 0.0
2015-Aug-20 05:20N 37°56' W 075°23'0 0.0
2015-Aug-20 04:32N 37°56' W 075°23'0 0.0
2015-Aug-20 03:33N 37°56' W 075°23'0 0.0
2015-Aug-20 02:28N 37°56' W 075°23'0 0.0
2015-Aug-19 11:31N 37°56' W 075°23'0 0.0
2015-Aug-19 09:33N 37°56' W 075°23'0 0.0
2015-Aug-19 08:32N 37°56' W 075°23'0 0.0
2015-Aug-19 07:22N 37°56' W 075°23'0 0.0
2015-Aug-19 04:29N 37°56' W 075°23'0 0.0
2015-Aug-19 00:04N 37°56' W 075°23'0 0.0
2015-Aug-18 22:31N 37°56' W 075°23'3 0.5
2015-Aug-18 15:20N 37°53' W 075°25'2 2.7
2015-Aug-18 14:29N 37°51' W 075°26'2 2.4
2015-Aug-18 13:31N 37°53' W 075°25'3 2.9
2015-Aug-18 12:30N 37°51' W 075°27'4 4.6
2015-Aug-18 11:33N 37°55' W 075°24'2 1.2
2015-Aug-18 10:06N 37°56' W 075°23'0 0.0
2015-Aug-18 08:12N 37°56' W 075°23'0 0.0
2015-Aug-18 07:06N 37°56' W 075°23'0 0.0
2015-Aug-18 06:05N 37°56' W 075°23'0 0.0
2015-Aug-18 05:31N 37°56' W 075°23'0 0.0
2015-Aug-18 04:34N 37°56' W 075°23'0 0.0
2015-Aug-18 04:11N 37°56' W 075°23'0 0.0
2015-Aug-18 04:08N 37°56' W 075°23'0 0.0
2015-Aug-18 03:34N 37°56' W 075°23'0 0.0
2015-Aug-18 02:32N 37°56' W 075°23'0 0.0
2015-Aug-18 01:33N 37°56' W 075°23'0 0.0
2015-Aug-18 00:34N 37°56' W 075°23'0 0.0
2015-Aug-17 23:32N 37°56' W 075°23'0 0.0
2015-Aug-17 22:33N 37°56' W 075°23'13 1.8
2015-Aug-17 15:33N 38°03' W 075°10'7 6.9
2015-Aug-17 14:33N 38°10' W 075°08'7 7.1
2015-Aug-17 13:33N 38°16' W 075°04'4 3.2
2015-Aug-17 12:24N 38°20' W 075°05'0 0.0
2015-Aug-17 11:29N 38°20' W 075°05'0 0.0
2015-Aug-17 10:33N 38°20' W 075°05'0 0.0
2015-Aug-17 09:33N 38°20' W 075°05'0 0.0
2015-Aug-17 08:34N 38°20' W 075°05'0 0.0
2015-Aug-17 07:33N 38°20' W 075°05'0 0.0
2015-Aug-17 06:34N 38°20' W 075°05'0 0.0
2015-Aug-17 05:33N 38°20' W 075°05'0 0.0
2015-Aug-17 04:14N 38°20' W 075°05'0 0.0
2015-Aug-17 03:33N 38°20' W 075°05'0 0.0
2015-Aug-17 00:33N 38°20' W 075°05'0 0.0
2015-Aug-16 23:32N 38°20' W 075°05'0 0.0
2015-Aug-16 14:17N 38°20' W 075°06'2 2.6
2015-Aug-16 13:32N 38°18' W 075°06'2 1.4
2015-Aug-16 12:07N 38°20' W 075°06'1 1.5
2015-Aug-16 11:16N 38°19' W 075°05'1 0.0
2015-Aug-15 12:08N 38°19' W 075°04'1 1.4
2015-Aug-15 11:30N 38°19' W 075°05'2 0.2
2015-Aug-15 02:21N 38°20' W 075°06'0 0.0
2015-Aug-15 01:29N 38°20' W 075°06'5 0.5
2015-Aug-14 15:33N 38°23' W 075°01'7 7.5
2015-Aug-14 14:34N 38°29' W 074°56'7 7.3
2015-Aug-14 13:34N 38°36' W 074°54'7 7.4
2015-Aug-14 12:34N 38°43' W 074°54'7 7.1
2015-Aug-14 11:34N 38°50' W 074°53'6 6.3
2015-Aug-14 10:33N 38°57' W 074°52'1 0.8
2015-Aug-14 09:33N 38°57' W 074°52'0 0.0
2015-Aug-14 08:33N 38°57' W 074°52'  
Track history (hours):
 
Tides and Currents Weather Stations Pressure Air Temp Water Temp Dewpoint Dewpoint Depression Visibility Wind Speed Wind Dir Waves Ship Positions

Currituck

Last reported at 2015-Aug-24 08:31 UTC. Time now 2015-Sep-01 14:13 UTC.
Position N 37°56' W 075°23'.
Warning: this ship's position is 8 days out of date.

Length 45 m; draft 3 m.

Type: Dredging. MMSI: 369970446.

Date/timePositionNaut miles runAvg speedWind from/ knotsBaromVisibWave heightAir tempDewpointWater temp
2015-Aug-24 08:31N 37°56' W 075°23'0 0.0
2015-Aug-23 13:33N 37°56' W 075°23'0 0.0
2015-Aug-23 12:33N 37°56' W 075°23'0 0.0
2015-Aug-23 11:33N 37°56' W 075°23'0 0.0
2015-Aug-23 09:33N 37°56' W 075°23'0 0.0
2015-Aug-22 09:20N 37°56' W 075°23'0 0.0
2015-Aug-22 04:33N 37°56' W 075°23'0 0.0
2015-Aug-22 03:33N 37°56' W 075°23'0 0.0
2015-Aug-20 09:31N 37°56' W 075°23'0 0.0
2015-Aug-20 08:19N 37°56' W 075°23'0 0.0
2015-Aug-20 07:28N 37°56' W 075°23'0 0.0
2015-Aug-20 06:28N 37°56' W 075°23'0 0.0
2015-Aug-20 05:20N 37°56' W 075°23'0 0.0
2015-Aug-20 04:32N 37°56' W 075°23'0 0.0
2015-Aug-20 03:33N 37°56' W 075°23'0 0.0
2015-Aug-20 02:28N 37°56' W 075°23'0 0.0
2015-Aug-19 11:31N 37°56' W 075°23'0 0.0
2015-Aug-19 09:33N 37°56' W 075°23'0 0.0
2015-Aug-19 08:32N 37°56' W 075°23'0 0.0
2015-Aug-19 07:22N 37°56' W 075°23'0 0.0
2015-Aug-19 04:29N 37°56' W 075°23'0 0.0
2015-Aug-19 00:04N 37°56' W 075°23'0 0.0
2015-Aug-18 22:31N 37°56' W 075°23'3 0.5
2015-Aug-18 15:20N 37°53' W 075°25'2 2.7
2015-Aug-18 14:29N 37°51' W 075°26'2 2.4
2015-Aug-18 13:31N 37°53' W 075°25'3 2.9
2015-Aug-18 12:30N 37°51' W 075°27'4 4.6
2015-Aug-18 11:33N 37°55' W 075°24'2 1.2
2015-Aug-18 10:06N 37°56' W 075°23'0 0.0
2015-Aug-18 08:12N 37°56' W 075°23'0 0.0
2015-Aug-18 07:06N 37°56' W 075°23'0 0.0
2015-Aug-18 06:05N 37°56' W 075°23'0 0.0
2015-Aug-18 05:31N 37°56' W 075°23'0 0.0
2015-Aug-18 04:34N 37°56' W 075°23'0 0.0
2015-Aug-18 04:11N 37°56' W 075°23'0 0.0
2015-Aug-18 04:08N 37°56' W 075°23'0 0.0
2015-Aug-18 03:34N 37°56' W 075°23'0 0.0
2015-Aug-18 02:32N 37°56' W 075°23'0 0.0
2015-Aug-18 01:33N 37°56' W 075°23'0 0.0
2015-Aug-18 00:34N 37°56' W 075°23'0 0.0
2015-Aug-17 23:32N 37°56' W 075°23'0 0.0
2015-Aug-17 22:33N 37°56' W 075°23'13 1.8
2015-Aug-17 15:33N 38°03' W 075°10'7 6.9
2015-Aug-17 14:33N 38°10' W 075°08'7 7.1
2015-Aug-17 13:33N 38°16' W 075°04'4 3.2
2015-Aug-17 12:24N 38°20' W 075°05'0 0.0
2015-Aug-17 11:29N 38°20' W 075°05'0 0.0
2015-Aug-17 10:33N 38°20' W 075°05'0 0.0
2015-Aug-17 09:33N 38°20' W 075°05'0 0.0
2015-Aug-17 08:34N 38°20' W 075°05'0 0.0
2015-Aug-17 07:33N 38°20' W 075°05'0 0.0
2015-Aug-17 06:34N 38°20' W 075°05'0 0.0
2015-Aug-17 05:33N 38°20' W 075°05'0 0.0
2015-Aug-17 04:14N 38°20' W 075°05'0 0.0
2015-Aug-17 03:33N 38°20' W 075°05'0 0.0
2015-Aug-17 00:33N 38°20' W 075°05'0 0.0
2015-Aug-16 23:32N 38°20' W 075°05'0 0.0
2015-Aug-16 14:17N 38°20' W 075°06'2 2.6
2015-Aug-16 13:32N 38°18' W 075°06'2 1.4
2015-Aug-16 12:07N 38°20' W 075°06'1 1.5
2015-Aug-16 11:16N 38°19' W 075°05'1 0.0
2015-Aug-15 12:08N 38°19' W 075°04'1 1.4
2015-Aug-15 11:30N 38°19' W 075°05'2 0.2
2015-Aug-15 02:21N 38°20' W 075°06'0 0.0
2015-Aug-15 01:29N 38°20' W 075°06'5 0.5
2015-Aug-14 15:33N 38°23' W 075°01'7 7.5
2015-Aug-14 14:34N 38°29' W 074°56'7 7.3
2015-Aug-14 13:34N 38°36' W 074°54'7 7.4
2015-Aug-14 12:34N 38°43' W 074°54'7 7.1
2015-Aug-14 11:34N 38°50' W 074°53'6 6.3
2015-Aug-14 10:33N 38°57' W 074°52'1 0.8
2015-Aug-14 09:33N 38°57' W 074°52'0 0.0
2015-Aug-14 08:33N 38°57' W 074°52'  

Dump ship's entire track history